Pyxis Theta — 9HA3126 — position and weather

sailwx.info

Track history (hours):
 
Tides and Currents Weather Stations Pressure Air Temp Water Temp Dewpoint Dewpoint Depression Visibility Wind Speed Wind Dir Waves Ship Positions

Pyxis Theta

Last reported at 2018-Feb-16 23:33 UTC. Time now 2018-Feb-24 20:17 UTC.
Position N 28°16' W 094°25'.

Length 183 m; draft 11.2 m.

Type: Tanker. MMSI: 229580000.

Date/timePositionNaut miles runAvg speedWind from/ knotsBaromVisibWave heightAir tempDewpointWater temp
2018-Feb-16 23:33N 28°16' W 094°25'313.2
2018-Feb-16 23:18N 28°19' W 094°25'1313.3
2018-Feb-16 22:18N 28°33' W 094°26'413.2
2018-Feb-16 21:59N 28°37' W 094°26'713.0
2018-Feb-16 21:27N 28°44' W 094°27'30 2.5
2018-Feb-16 09:16N 29°13' W 094°37'0 0.0
2018-Feb-16 07:55N 29°13' W 094°37'0 0.0
2018-Feb-16 07:28N 29°13' W 094°37'0 0.0
2018-Feb-16 06:49N 29°13' W 094°37'0 0.0
2018-Feb-16 06:28N 29°13' W 094°37'0 0.0
2018-Feb-16 05:49N 29°13' W 094°37'0 0.0
2018-Feb-16 04:46N 29°13' W 094°37'0 0.1
2018-Feb-16 04:19N 29°13' W 094°37'0 0.0
2018-Feb-16 03:58N 29°13' W 094°37'0 0.0
2018-Feb-16 02:31N 29°13' W 094°37'0 0.0
2018-Feb-16 02:28N 29°13' W 094°37'0 0.0
2018-Feb-16 01:55N 29°13' W 094°37'0 0.0
2018-Feb-16 01:25N 29°13' W 094°37'0 0.0
2018-Feb-16 00:58N 29°13' W 094°37'0 0.0
2018-Feb-16 00:16N 29°13' W 094°37'0 0.0
2018-Feb-15 23:55N 29°13' W 094°37'0 0.0
2018-Feb-15 10:43N 29°13' W 094°37'0 0.0
2018-Feb-15 08:55N 29°13' W 094°37'0 0.0
2018-Feb-15 08:28N 29°13' W 094°37'0 0.0
2018-Feb-15 07:52N 29°13' W 094°37'0 0.0
2018-Feb-15 07:28N 29°13' W 094°37'0 0.0
2018-Feb-15 06:19N 29°13' W 094°37'0 0.4
2018-Feb-15 05:58N 29°13' W 094°37'2 3.2
2018-Feb-15 05:29N 29°14' W 094°36'3 6.5
2018-Feb-15 05:00N 29°17' W 094°37'4 8.2
2018-Feb-15 04:30N 29°20' W 094°40'611.3
2018-Feb-15 03:59N 29°21' W 094°47'510.9
2018-Feb-15 03:30N 29°26' W 094°50'510.4
2018-Feb-15 03:00N 29°30' W 094°52'510.2
2018-Feb-15 02:30N 29°34' W 094°56'510.0
2018-Feb-15 02:00N 29°39' W 094°58'4 8.6
2018-Feb-15 01:30N 29°42' W 095°01'3 6.2
2018-Feb-15 00:58N 29°45' W 095°04'3 5.4
2018-Feb-15 00:21N 29°44' W 095°08'3 0.1
2018-Feb-13 12:28N 29°45' W 095°11'2 4.9
2018-Feb-13 11:58N 29°44' W 095°08'3 5.2
2018-Feb-13 11:26N 29°45' W 095°06'2 5.3
2018-Feb-13 11:00N 29°44' W 095°03'3 6.6
2018-Feb-13 10:30N 29°42' W 095°00'5 9.8
2018-Feb-13 10:00N 29°38' W 094°58'  
2018-Feb-10 08:47N 29°10' W 094°37'0 0.0
2018-Feb-10 08:17N 29°10' W 094°37'  
Track history (hours):
 
Tides and Currents Weather Stations Pressure Air Temp Water Temp Dewpoint Dewpoint Depression Visibility Wind Speed Wind Dir Waves Ship Positions

Pyxis Theta

Last reported at 2018-Feb-16 23:33 UTC. Time now 2018-Feb-24 20:17 UTC.
Position N 28°16' W 094°25'.

Length 183 m; draft 11.2 m.

Type: Tanker. MMSI: 229580000.

Date/timePositionNaut miles runAvg speedWind from/ knotsBaromVisibWave heightAir tempDewpointWater temp
2018-Feb-16 23:33N 28°16' W 094°25'313.2
2018-Feb-16 23:18N 28°19' W 094°25'1313.3
2018-Feb-16 22:18N 28°33' W 094°26'413.2
2018-Feb-16 21:59N 28°37' W 094°26'713.0
2018-Feb-16 21:27N 28°44' W 094°27'30 2.5
2018-Feb-16 09:16N 29°13' W 094°37'0 0.0
2018-Feb-16 07:55N 29°13' W 094°37'0 0.0
2018-Feb-16 07:28N 29°13' W 094°37'0 0.0
2018-Feb-16 06:49N 29°13' W 094°37'0 0.0
2018-Feb-16 06:28N 29°13' W 094°37'0 0.0
2018-Feb-16 05:49N 29°13' W 094°37'0 0.0
2018-Feb-16 04:46N 29°13' W 094°37'0 0.1
2018-Feb-16 04:19N 29°13' W 094°37'0 0.0
2018-Feb-16 03:58N 29°13' W 094°37'0 0.0
2018-Feb-16 02:31N 29°13' W 094°37'0 0.0
2018-Feb-16 02:28N 29°13' W 094°37'0 0.0
2018-Feb-16 01:55N 29°13' W 094°37'0 0.0
2018-Feb-16 01:25N 29°13' W 094°37'0 0.0
2018-Feb-16 00:58N 29°13' W 094°37'0 0.0
2018-Feb-16 00:16N 29°13' W 094°37'0 0.0
2018-Feb-15 23:55N 29°13' W 094°37'0 0.0
2018-Feb-15 10:43N 29°13' W 094°37'0 0.0
2018-Feb-15 08:55N 29°13' W 094°37'0 0.0
2018-Feb-15 08:28N 29°13' W 094°37'0 0.0
2018-Feb-15 07:52N 29°13' W 094°37'0 0.0
2018-Feb-15 07:28N 29°13' W 094°37'0 0.0
2018-Feb-15 06:19N 29°13' W 094°37'0 0.4
2018-Feb-15 05:58N 29°13' W 094°37'2 3.2
2018-Feb-15 05:29N 29°14' W 094°36'3 6.5
2018-Feb-15 05:00N 29°17' W 094°37'4 8.2
2018-Feb-15 04:30N 29°20' W 094°40'611.3
2018-Feb-15 03:59N 29°21' W 094°47'510.9
2018-Feb-15 03:30N 29°26' W 094°50'510.4
2018-Feb-15 03:00N 29°30' W 094°52'510.2
2018-Feb-15 02:30N 29°34' W 094°56'510.0
2018-Feb-15 02:00N 29°39' W 094°58'4 8.6
2018-Feb-15 01:30N 29°42' W 095°01'3 6.2
2018-Feb-15 00:58N 29°45' W 095°04'3 5.4
2018-Feb-15 00:21N 29°44' W 095°08'3 0.1
2018-Feb-13 12:28N 29°45' W 095°11'2 4.9
2018-Feb-13 11:58N 29°44' W 095°08'3 5.2
2018-Feb-13 11:26N 29°45' W 095°06'2 5.3
2018-Feb-13 11:00N 29°44' W 095°03'3 6.6
2018-Feb-13 10:30N 29°42' W 095°00'5 9.8
2018-Feb-13 10:00N 29°38' W 094°58'  
2018-Feb-10 08:47N 29°10' W 094°37'0 0.0
2018-Feb-10 08:17N 29°10' W 094°37'  

Dump ship's entire track history